createdAt,value
2018-08-18T00:00:59.569Z,22.96
2018-08-18T00:02:09.604Z,22.94
2018-08-18T00:03:19.611Z,22.89
2018-08-18T00:04:29.619Z,22.88
2018-08-18T00:05:39.644Z,22.91
2018-08-18T00:06:49.398Z,22.91
2018-08-18T00:07:59.401Z,22.84
2018-08-18T00:09:09.412Z,22.92
2018-08-18T00:10:19.212Z,22.85
2018-08-18T00:11:29.219Z,22.85
2018-08-18T00:12:39.235Z,22.81
2018-08-18T00:13:49.118Z,22.76
2018-08-18T00:14:59.135Z,22.73
2018-08-18T00:16:09.149Z,22.75
2018-08-18T00:17:19.162Z,22.76
2018-08-18T00:18:28.905Z,22.67
2018-08-18T00:19:38.925Z,22.63
2018-08-18T00:20:48.936Z,22.66
2018-08-18T00:21:58.947Z,22.71
2018-08-18T00:23:08.949Z,22.7
2018-08-18T00:24:18.959Z,22.66
2018-08-18T00:25:28.719Z,22.59
2018-08-18T00:26:38.733Z,22.7
2018-08-18T00:27:48.483Z,22.7
2018-08-18T00:28:58.510Z,22.7
2018-08-18T00:30:08.535Z,22.7
2018-08-18T00:31:18.278Z,22.6
2018-08-18T00:32:28.032Z,22.66
2018-08-18T00:33:37.776Z,22.6
2018-08-18T00:34:47.792Z,22.6
2018-08-18T00:35:57.553Z,22.59
2018-08-18T00:37:07.572Z,22.61
2018-08-18T00:38:17.568Z,22.57
2018-08-18T00:39:27.583Z,22.54
2018-08-18T00:40:37.591Z,22.57
2018-08-18T00:41:47.613Z,22.51
2018-08-18T00:42:57.640Z,22.49
2018-08-18T00:44:07.432Z,22.51
2018-08-18T00:45:17.437Z,22.51
2018-08-18T00:46:27.487Z,22.33
2018-08-18T00:47:37.505Z,22.38
2018-08-18T00:48:47.524Z,22.44
2018-08-18T00:49:57.024Z,22.41
2018-08-18T00:51:06.785Z,22.51
2018-08-18T00:52:16.542Z,22.38
2018-08-18T00:53:26.568Z,22.42
2018-08-18T00:54:36.335Z,22.41
2018-08-18T00:55:46.086Z,22.45
2018-08-18T00:56:55.835Z,22.41
2018-08-18T00:58:05.901Z,22.42
2018-08-18T00:59:15.651Z,22.34
2018-08-18T01:00:25.669Z,22.3
2018-08-18T01:01:35.675Z,22.27
2018-08-18T01:02:45.711Z,22.3
2018-08-18T01:03:55.787Z,22.26
2018-08-18T01:05:05.820Z,22.34
2018-08-18T01:06:15.816Z,22.38
2018-08-18T01:07:25.582Z,22.2
2018-08-18T01:08:35.595Z,22.27
2018-08-18T01:09:45.646Z,22.2
2018-08-18T01:10:55.760Z,22.24
2018-08-18T01:12:06.693Z,22.24
2018-08-18T01:13:17.345Z,22.26
2018-08-18T01:14:28.211Z,22.27
2018-08-18T01:15:38.706Z,22.22
2018-08-18T01:16:49.139Z,22.29
2018-08-18T01:17:59.150Z,22.34
2018-08-18T01:19:09.151Z,22.3
2018-08-18T01:20:19.152Z,22.29
2018-08-18T01:21:28.761Z,22.27
2018-08-18T01:22:38.551Z,22.22
2018-08-18T01:23:48.566Z,22.18
2018-08-18T01:24:58.640Z,22.15
2018-08-18T01:26:08.414Z,22.2
2018-08-18T01:27:18.626Z,22.12
2018-08-18T01:28:28.631Z,22.14
2018-08-18T01:29:38.395Z,22.16
2018-08-18T01:30:48.428Z,22.14
2018-08-18T01:31:58.446Z,22.14
2018-08-18T01:33:07.938Z,22.16
2018-08-18T01:34:17.434Z,22.09
2018-08-18T01:35:27.461Z,22.08
2018-08-18T01:36:37.216Z,22.05
2018-08-18T01:37:47.243Z,22.09
2018-08-18T01:38:57.245Z,21.96
2018-08-18T01:40:07.257Z,21.9
2018-08-18T01:41:17.256Z,22.09
2018-08-18T01:42:27.317Z,22.05
2018-08-18T01:43:37.456Z,21.93
2018-08-18T01:44:47.615Z,22.09
2018-08-18T01:45:57.691Z,22.07
2018-08-18T01:47:07.759Z,22.07
2018-08-18T01:48:17.568Z,22.02
2018-08-18T01:49:27.663Z,21.93
2018-08-18T01:50:37.524Z,22.02
2018-08-18T01:51:47.612Z,21.97
2018-08-18T01:52:57.442Z,21.97
2018-08-18T01:54:07.516Z,21.96
2018-08-18T01:55:17.054Z,21.94
2018-08-18T01:56:26.910Z,21.94
2018-08-18T01:57:36.450Z,21.86
2018-08-18T01:58:46.522Z,21.89
2018-08-18T01:59:56.327Z,21.85
2018-08-18T02:01:06.214Z,21.82
2018-08-18T02:02:16.340Z,21.86
2018-08-18T02:03:25.915Z,21.82
2018-08-18T02:04:35.971Z,21.82
2018-08-18T02:05:45.777Z,21.74
2018-08-18T02:06:55.573Z,21.82
2018-08-18T02:08:05.468Z,21.82
2018-08-18T02:09:15.571Z,21.74
2018-08-18T02:10:25.389Z,21.8
2018-08-18T02:11:35.471Z,21.76
2018-08-18T02:12:45.528Z,21.76
2018-08-18T02:13:55.698Z,21.68
2018-08-18T02:15:05.935Z,21.67
2018-08-18T02:16:16.018Z,21.71
2018-08-18T02:17:26.089Z,21.74
2018-08-18T02:18:36.161Z,21.7
2018-08-18T02:19:46.022Z,21.68
2018-08-18T02:20:56.170Z,21.68
2018-08-18T02:22:06.234Z,21.71
2018-08-18T02:23:16.323Z,21.62
2018-08-18T02:24:26.135Z,21.61
2018-08-18T02:25:36.204Z,21.7
2018-08-18T02:26:46.288Z,21.62
2018-08-18T02:27:56.380Z,21.62
2018-08-18T02:29:06.201Z,21.61
2018-08-18T02:30:16.285Z,21.62
2018-08-18T02:31:26.163Z,21.64
2018-08-18T02:32:36.255Z,21.68
2018-08-18T02:33:46.068Z,21.62
2018-08-18T02:34:55.870Z,21.62
2018-08-18T02:36:06.114Z,21.62
2018-08-18T02:37:15.986Z,21.59
2018-08-18T02:38:25.799Z,21.67
2018-08-18T02:39:35.874Z,21.62
2018-08-18T02:40:46.248Z,21.64
2018-08-18T02:41:56.051Z,21.59
2018-08-18T02:43:05.911Z,21.64
2018-08-18T02:44:15.727Z,21.71
2018-08-18T02:45:25.306Z,21.7
2018-08-18T02:46:35.376Z,21.59
2018-08-18T02:47:45.505Z,21.64
2018-08-18T02:48:55.379Z,21.64
2018-08-18T02:50:05.458Z,21.7
2018-08-18T02:51:15.529Z,21.67
2018-08-18T02:52:25.604Z,21.61
2018-08-18T02:53:35.481Z,21.59
2018-08-18T02:54:45.318Z,21.55
2018-08-18T02:55:55.121Z,21.62
2018-08-18T02:57:05.254Z,21.55
2018-08-18T02:58:15.326Z,21.51
2018-08-18T02:59:25.139Z,21.58
2018-08-18T03:00:34.729Z,21.66
2018-08-18T03:01:44.811Z,21.51
2018-08-18T03:02:54.890Z,21.59
2018-08-18T03:35:13.558Z,19.55
2018-08-18T03:36:23.614Z,19.45
2018-08-18T03:37:33.693Z,19.49
2018-08-18T03:38:43.764Z,19.47
2018-08-18T03:39:53.844Z,19.46
2018-08-18T03:41:04.019Z,19.55
2018-08-18T03:42:13.571Z,19.64
2018-08-18T03:43:23.656Z,19.68
2018-08-18T03:44:33.743Z,19.75
2018-08-18T03:45:43.551Z,19.98
2018-08-18T03:46:53.421Z,20.07
2018-08-18T03:48:03.501Z,20.15
2018-08-18T03:49:13.576Z,20.19
2018-08-18T03:50:23.663Z,20.42
2018-08-18T03:51:33.481Z,20.46
2018-08-18T03:52:43.560Z,20.46
2018-08-18T03:53:53.621Z,20.67
2018-08-18T03:55:02.896Z,20.82
2018-08-18T03:56:12.760Z,20.85
2018-08-18T03:57:22.552Z,21
2018-08-18T03:58:32.407Z,21
2018-08-18T03:59:42.506Z,21.09
2018-08-18T04:00:52.608Z,21.23
2018-08-18T04:02:03.077Z,21.19
2018-08-18T04:03:13.416Z,21.36
2018-08-18T04:04:23.547Z,21.43
2018-08-18T04:05:33.412Z,21.53
2018-08-18T04:06:43.226Z,21.56
2018-08-18T04:07:53.307Z,21.55
2018-08-18T04:09:03.833Z,21.68
2018-08-18T04:10:13.708Z,21.74
2018-08-18T04:11:23.805Z,21.78
2018-08-18T04:12:33.892Z,21.82
2018-08-18T04:13:43.973Z,21.9
2018-08-18T04:14:54.038Z,21.92
2018-08-18T04:16:04.369Z,21.94
2018-08-18T04:17:14.450Z,21.92
2018-08-18T04:18:24.532Z,21.97
2018-08-18T04:19:34.598Z,21.96
2018-08-18T04:20:44.680Z,22
2018-08-18T04:21:54.522Z,22.11
2018-08-18T04:23:04.642Z,22.09
2018-08-18T04:24:14.707Z,22.46
2018-08-18T04:25:25.207Z,22.67
2018-08-18T04:26:35.028Z,22.79
2018-08-18T04:27:45.118Z,22.84
2018-08-18T04:28:55.200Z,22.88
2018-08-18T04:30:05.278Z,22.85
2018-08-18T04:31:15.404Z,22.88
2018-08-18T04:32:25.493Z,23.04
2018-08-18T04:33:35.562Z,22.91
2018-08-18T04:34:45.643Z,23.21
2018-08-18T04:35:55.787Z,23.59
2018-08-18T04:37:05.875Z,23.82
2018-08-18T04:38:15.966Z,23.97
2018-08-18T04:39:26.088Z,24.34
2018-08-18T04:40:36.160Z,24.77
2018-08-18T04:41:46.216Z,25.38
2018-08-18T04:42:55.502Z,25.75
2018-08-18T04:44:05.732Z,25.81
2018-08-18T04:45:15.831Z,25.75
2018-08-18T04:46:25.390Z,25.93
2018-08-18T04:47:35.461Z,26.22
2018-08-18T04:48:45.546Z,26.15
2018-08-18T04:49:55.636Z,26.27
2018-08-18T04:51:05.758Z,26
2018-08-18T04:52:15.847Z,25.82
2018-08-18T04:53:25.923Z,26.16
2018-08-18T04:54:36.010Z,26.42
2018-08-18T04:55:45.807Z,26.44
2018-08-18T04:56:56.154Z,26.93
2018-08-18T04:58:06.289Z,27.42
2018-08-18T04:59:16.191Z,27.98
2018-08-18T05:00:26.242Z,28.35
2018-08-18T05:01:36.325Z,28.65
2018-08-18T05:02:46.210Z,28.98
2018-08-18T05:03:56.314Z,29.2
2018-08-18T05:05:06.553Z,29.45
2018-08-18T05:06:16.842Z,29.63
2018-08-18T05:07:26.934Z,29.72
2018-08-18T05:08:37.015Z,29.94
2018-08-18T05:09:46.834Z,30.13
2018-08-18T05:10:56.649Z,30.16
2018-08-18T05:12:06.773Z,30.25
2018-08-18T05:13:16.608Z,30.49
2018-08-18T05:14:26.747Z,30.57
2018-08-18T05:15:36.621Z,30.75
2018-08-18T05:16:46.705Z,30.82
2018-08-18T05:17:56.801Z,30.86
2018-08-18T05:19:06.852Z,30.91
2018-08-18T05:20:17.073Z,30.96
2018-08-18T05:21:26.619Z,31.08
2018-08-18T05:22:36.694Z,31.16
2018-08-18T05:23:46.797Z,31.12
2018-08-18T05:24:56.895Z,31.18
2018-08-18T05:26:07.061Z,31.06
2018-08-18T05:27:17.139Z,31.15
2018-08-18T05:28:27.244Z,31.23
2018-08-18T05:29:37.340Z,31.25
2018-08-18T05:30:47.413Z,31.3
2018-08-18T05:31:57.501Z,31.43
2018-08-18T05:33:07.316Z,31.4
2018-08-18T05:34:17.145Z,31.4
2018-08-18T05:35:27.242Z,31.43
2018-08-18T05:36:37.616Z,31.45
2018-08-18T05:37:49.877Z,31.58
2018-08-18T05:38:59.965Z,31.55
2018-08-18T05:40:10.057Z,31.58
2018-08-18T05:41:20.139Z,31.6
2018-08-18T05:42:30.232Z,31.68
2018-08-18T05:43:40.363Z,31.68
2018-08-18T05:44:50.186Z,31.67
2018-08-18T05:46:00.322Z,31.67
2018-08-18T05:47:10.402Z,31.72
2018-08-18T05:48:20.489Z,31.72
2018-08-18T05:49:30.582Z,31.71
2018-08-18T05:50:40.667Z,31.68
2018-08-18T05:51:50.487Z,31.33
2018-08-18T05:53:00.397Z,30.71
2018-08-18T05:54:10.472Z,30.14
2018-08-18T05:55:20.340Z,29.79
2018-08-18T05:56:30.153Z,29.67
2018-08-18T05:57:40.241Z,29.51
2018-08-18T05:58:50.392Z,29.26
2018-08-18T06:00:00.485Z,28.97
2018-08-18T06:01:10.684Z,28.86
2018-08-18T06:02:20.773Z,28.65
2018-08-18T06:03:30.623Z,28.58
2018-08-18T06:04:40.795Z,28.64
2018-08-18T06:05:51.158Z,28.73
2018-08-18T06:07:00.910Z,28.68
2018-08-18T06:08:11.063Z,28.51
2018-08-18T06:09:20.889Z,28.48
2018-08-18T06:10:30.992Z,28.38
2018-08-18T06:11:40.814Z,28.27
2018-08-18T06:12:50.993Z,28.2
2018-08-18T06:14:01.116Z,28.12
2018-08-18T06:15:10.930Z,28.17
2018-08-18T06:16:21.012Z,28.16
2018-08-18T06:17:30.866Z,28.03
2018-08-18T06:18:40.943Z,28.03
2018-08-18T06:19:51.056Z,27.99
2018-08-18T06:21:01.137Z,28.08
2018-08-18T06:22:11.207Z,27.99
2018-08-18T06:23:21.299Z,27.94
2018-08-18T06:24:31.176Z,27.96
2018-08-18T06:25:40.998Z,28.05
2018-08-18T06:26:51.096Z,27.96
2018-08-18T06:28:01.168Z,28.03
2018-08-18T06:29:10.989Z,27.98
2018-08-18T06:30:21.097Z,28.02
2018-08-18T06:31:31.185Z,27.9
2018-08-18T06:32:41.248Z,27.89
2018-08-18T06:33:51.338Z,27.79
2018-08-18T06:35:01.896Z,27.74
2018-08-18T06:36:12.308Z,27.69
2018-08-18T06:37:22.435Z,27.69
2018-08-18T06:38:32.525Z,27.66
2018-08-18T06:39:42.646Z,27.62
2018-08-18T06:40:52.732Z,27.62
2018-08-18T06:42:03.200Z,27.65
2018-08-18T06:43:13.041Z,27.62
2018-08-18T06:44:23.128Z,27.46
2018-08-18T06:45:32.954Z,27.37
2018-08-18T06:46:43.033Z,27.48
2018-08-18T06:47:53.175Z,27.38
2018-08-18T06:49:03.080Z,27.51
2018-08-18T06:50:12.906Z,27.69
2018-08-18T06:51:22.998Z,27.68
2018-08-18T06:52:33.084Z,27.87
2018-08-18T06:53:43.177Z,27.9
2018-08-18T06:54:53.640Z,27.91
2018-08-18T06:56:04.258Z,28.02
2018-08-18T06:57:14.529Z,28.05
2018-08-18T06:58:24.348Z,28.02
2018-08-18T06:59:34.179Z,28.11
2018-08-18T07:00:44.271Z,28.14
2018-08-18T07:01:54.384Z,28.2
2018-08-18T07:03:04.455Z,28.28
2018-08-18T07:04:14.570Z,28.28
2018-08-18T07:05:24.671Z,28.28
2018-08-18T07:06:34.799Z,28.31
2018-08-18T07:07:44.619Z,28.41
2018-08-18T07:08:54.707Z,28.42
2018-08-18T07:10:04.780Z,28.41
2018-08-18T07:11:14.918Z,28.49
2018-08-18T07:12:24.743Z,28.49
2018-08-18T07:13:34.823Z,28.48
2018-08-18T07:14:44.918Z,28.55
2018-08-18T07:15:54.502Z,28.67
2018-08-18T07:17:04.325Z,28.68
2018-08-18T07:18:14.422Z,28.73
2018-08-18T07:19:24.658Z,28.82
2018-08-18T07:20:35.110Z,28.83
2018-08-18T07:21:45.182Z,28.94
2018-08-18T07:22:55.273Z,28.94
2018-08-18T07:24:05.366Z,28.94
2018-08-18T07:25:15.188Z,28.98
2018-08-18T07:26:25.003Z,28.97
2018-08-18T07:27:35.110Z,28.98
2018-08-18T07:28:45.656Z,29.06
2018-08-18T07:29:56.226Z,29.15
2018-08-18T07:31:06.321Z,29.14
2018-08-18T07:32:16.457Z,29.2
2018-08-18T07:33:26.541Z,29.23
2018-08-18T07:34:36.389Z,29.29
2018-08-18T07:35:46.473Z,29.33
2018-08-18T07:36:56.578Z,29.39
2018-08-18T07:38:06.687Z,29.43
2018-08-18T07:39:16.598Z,29.43
2018-08-18T07:40:26.708Z,29.43
2018-08-18T07:41:36.780Z,29.42
2018-08-18T07:42:46.855Z,29.54
2018-08-18T07:43:56.943Z,29.45
2018-08-18T07:45:07.030Z,29.54
2018-08-18T07:46:17.218Z,29.57
2018-08-18T07:47:27.416Z,29.66
2018-08-18T07:48:37.523Z,29.61
2018-08-18T07:49:47.612Z,29.65
2018-08-18T07:50:57.695Z,29.61
2018-08-18T07:52:07.829Z,29.7
2018-08-18T07:53:18.413Z,29.77
2018-08-18T07:54:28.140Z,29.91
2018-08-18T07:55:38.239Z,29.95
2018-08-18T07:56:48.054Z,29.97
2018-08-18T07:57:57.907Z,30.03
2018-08-18T07:59:08.105Z,30.1
2018-08-18T08:00:18.193Z,30.06
2018-08-18T08:01:28.643Z,30.09
2018-08-18T08:02:38.726Z,30.14
2018-08-18T08:03:48.888Z,30.14
2018-08-18T08:04:59.162Z,30.22
2018-08-18T08:06:09.160Z,30.31
2018-08-18T08:07:19.247Z,30.31
2018-08-18T08:08:29.331Z,30.34
2018-08-18T08:09:39.162Z,30.51
2018-08-18T08:10:49.248Z,30.51
2018-08-18T08:11:59.376Z,30.54
2018-08-18T08:13:09.487Z,30.54
2018-08-18T08:14:19.550Z,30.57
2018-08-18T08:15:29.643Z,30.66
2018-08-18T08:16:39.526Z,30.66
2018-08-18T08:17:49.594Z,30.75
2018-08-18T08:18:59.700Z,30.75
2018-08-18T08:20:09.798Z,30.86
2018-08-18T08:21:19.632Z,30.86
2018-08-18T08:22:29.720Z,30.99
2018-08-18T08:23:39.802Z,31.07
2018-08-18T08:24:49.647Z,31.16
2018-08-18T08:25:59.472Z,31.18
2018-08-18T08:27:09.613Z,31.26
2018-08-18T08:28:19.710Z,31.3
2018-08-18T08:29:29.777Z,31.31
2018-08-18T08:30:39.610Z,31.44
2018-08-18T08:31:49.714Z,31.47
2018-08-18T08:32:59.826Z,31.43
2018-08-18T08:34:09.920Z,31.56
2018-08-18T08:35:20.010Z,31.52
2018-08-18T08:36:29.819Z,31.56
2018-08-18T08:37:39.900Z,31.6
2018-08-18T08:38:50.042Z,31.68
2018-08-18T08:40:00.335Z,31.63
2018-08-18T08:41:10.167Z,31.75
2018-08-18T08:42:20.251Z,31.75
2018-08-18T08:43:29.833Z,31.8
2018-08-18T08:44:39.715Z,31.91
2018-08-18T08:45:49.812Z,31.93
2018-08-18T08:46:59.911Z,31.95
2018-08-18T08:48:09.487Z,31.97
2018-08-18T08:49:19.781Z,32.01
2018-08-18T08:50:29.885Z,32.03
2018-08-18T08:51:39.970Z,32.06
2018-08-18T08:52:50.085Z,32.1
2018-08-18T08:54:00.354Z,32.09
2018-08-18T08:55:10.526Z,32.15
2018-08-18T08:56:20.610Z,32.19
2018-08-18T08:57:30.696Z,32.16
2018-08-18T08:58:40.820Z,32.23
2018-08-18T08:59:51.051Z,32.39
2018-08-18T09:01:01.153Z,32.39
2018-08-18T09:02:11.285Z,32.49
2018-08-18T09:03:21.381Z,32.54
2018-08-18T09:04:31.488Z,32.54
2018-08-18T09:05:41.323Z,32.62
2018-08-18T09:06:51.459Z,32.69
2018-08-18T09:08:01.553Z,32.71
2018-08-18T09:09:11.131Z,32.67
2018-08-18T09:10:20.928Z,32.74
2018-08-18T09:11:31.392Z,32.75
2018-08-18T09:12:41.490Z,32.74
2018-08-18T09:13:51.556Z,32.83
2018-08-18T09:15:01.667Z,32.89
2018-08-18T09:16:11.521Z,32.8
2018-08-18T09:17:21.357Z,32.93
2018-08-18T09:18:31.489Z,32.96
2018-08-18T09:19:41.596Z,32.94
2018-08-18T09:20:51.707Z,32.94
2018-08-18T09:22:01.799Z,32.99
2018-08-18T09:23:11.894Z,32.89
2018-08-18T09:24:21.978Z,33.03
2018-08-18T09:25:31.781Z,33.06
2018-08-18T09:26:41.873Z,33.13
2018-08-18T09:27:51.703Z,33.24
2018-08-18T09:29:01.826Z,33.16
2018-08-18T09:30:11.980Z,33.31
2018-08-18T09:31:21.599Z,33.31
2018-08-18T09:32:31.432Z,33.4
2018-08-18T09:33:41.268Z,33.4
2018-08-18T09:34:51.390Z,33.47
2018-08-18T09:36:01.495Z,33.53
2018-08-18T09:37:11.647Z,33.53
2018-08-18T09:38:21.728Z,33.55
2018-08-18T09:39:31.561Z,33.61
2018-08-18T09:40:41.629Z,33.59
2018-08-18T09:41:51.445Z,33.68
2018-08-18T09:43:01.544Z,33.73
2018-08-18T09:44:11.378Z,33.69
2018-08-18T09:45:21.569Z,33.73
2018-08-18T09:46:32.093Z,33.73
2018-08-18T09:47:42.181Z,33.69
2018-08-18T09:48:52.285Z,33.81
2018-08-18T09:50:02.366Z,33.89
2018-08-18T09:51:12.196Z,33.9
2018-08-18T09:52:22.294Z,33.99
2018-08-18T09:53:32.381Z,34.06
2018-08-18T09:54:42.532Z,34.12
2018-08-18T09:55:52.625Z,34.1
2018-08-18T09:57:02.733Z,34.06
2018-08-18T09:58:12.819Z,34.11
2018-08-18T09:59:23.140Z,34.11
2018-08-18T10:00:33.322Z,34.26
2018-08-18T10:01:43.157Z,34.22
2018-08-18T10:02:53.246Z,34.33
2018-08-18T10:04:03.354Z,34.3
2018-08-18T10:05:13.458Z,34.43
2018-08-18T10:06:23.910Z,34.49
2018-08-18T10:07:34.193Z,34.56
2018-08-18T10:08:44.297Z,34.69
2018-08-18T10:09:54.396Z,34.61
2018-08-18T10:11:04.513Z,34.63
2018-08-18T10:12:14.393Z,34.64
2018-08-18T10:13:24.518Z,34.61
2018-08-18T10:14:34.595Z,34.59
2018-08-18T10:15:44.714Z,34.56
2018-08-18T10:16:54.820Z,34.67
2018-08-18T10:18:05.117Z,34.69
2018-08-18T10:19:14.947Z,34.71
2018-08-18T10:20:24.521Z,34.78
2018-08-18T10:21:34.625Z,34.83
2018-08-18T10:22:44.716Z,34.84
2018-08-18T10:23:54.557Z,34.94
2018-08-18T10:25:04.675Z,34.93
2018-08-18T10:26:14.797Z,34.94
2018-08-18T10:27:25.149Z,35.11
2018-08-18T10:28:35.420Z,35.08
2018-08-18T10:29:45.559Z,35.2
2018-08-18T10:30:55.652Z,35.3
2018-08-18T10:32:05.734Z,35.26
2018-08-18T10:33:15.959Z,35.23
2018-08-18T10:34:26.263Z,35.4
2018-08-18T10:35:36.355Z,35.34
2018-08-18T10:36:46.192Z,35.39
2018-08-18T10:37:56.309Z,35.43
2018-08-18T10:39:06.392Z,35.57
2018-08-18T10:40:16.251Z,35.49
2018-08-18T10:41:26.347Z,35.61
2018-08-18T10:42:36.467Z,35.77
2018-08-18T10:43:46.537Z,35.94
2018-08-18T10:44:56.369Z,35.96
2018-08-18T10:46:06.440Z,35.95
2018-08-18T10:47:16.284Z,35.96
2018-08-18T10:48:26.121Z,36.12
2018-08-18T10:49:36.213Z,36.04
2018-08-18T10:50:46.034Z,36.02
2018-08-18T10:51:56.183Z,36.08
2018-08-18T10:53:06.341Z,36.12
2018-08-18T10:54:16.428Z,36.17
2018-08-18T10:55:26.530Z,36.21
2018-08-18T10:56:36.355Z,36.21
2018-08-18T10:57:45.929Z,36.12
2018-08-18T10:58:55.747Z,36.21
2018-08-18T11:00:05.826Z,36.25
2018-08-18T11:01:15.925Z,36.28
2018-08-18T11:02:26.018Z,36.3
2018-08-18T11:03:36.099Z,36.34
2018-08-18T11:04:45.977Z,36.34
2018-08-18T11:05:55.843Z,36.33
2018-08-18T11:07:06.130Z,36.32
2018-08-18T11:08:16.246Z,36.28
2018-08-18T11:09:26.326Z,36.3
2018-08-18T11:10:36.432Z,36.19
2018-08-18T11:11:46.575Z,35.96
2018-08-18T11:12:56.479Z,35.64
2018-08-18T11:14:06.311Z,35.82
2018-08-18T11:15:15.928Z,36.05
2018-08-18T11:16:26.000Z,36.05
2018-08-18T11:17:36.107Z,36.08
2018-08-18T11:18:46.212Z,36.19
2018-08-18T11:19:56.338Z,36.19
2018-08-18T11:21:06.171Z,36.3
2018-08-18T11:22:16.284Z,36.36
2018-08-18T11:23:26.119Z,36.43
2018-08-18T11:24:36.211Z,36.41
2018-08-18T11:25:46.300Z,36.44
2018-08-18T11:26:56.403Z,36.44
2018-08-18T11:28:06.228Z,36.47
2018-08-18T11:29:16.313Z,36.55
2018-08-18T11:30:25.873Z,36.44
2018-08-18T11:31:35.964Z,36.41
2018-08-18T11:32:46.045Z,36.51
2018-08-18T11:33:56.152Z,36.46
2018-08-18T11:35:06.381Z,36.51
2018-08-18T11:36:16.293Z,36.44
2018-08-18T11:37:26.105Z,36.52
2018-08-18T11:38:36.202Z,36.61
2018-08-18T11:39:46.083Z,36.58
2018-08-18T11:40:56.163Z,36.63
2018-08-18T11:42:06.282Z,36.68
2018-08-18T11:43:16.404Z,36.78
2018-08-18T11:44:26.236Z,36.73
2018-08-18T11:45:36.396Z,36.74
2018-08-18T11:46:46.505Z,36.78
2018-08-18T11:47:56.335Z,36.8
2018-08-18T11:49:06.166Z,36.84
2018-08-18T11:50:16.252Z,36.78
2018-08-18T11:51:26.400Z,36.88
2018-08-18T11:52:36.532Z,36.88
2018-08-18T11:53:46.624Z,36.83
2018-08-18T11:54:56.474Z,36.88
2018-08-18T11:56:06.568Z,36.88
2018-08-18T11:57:16.667Z,36.99
2018-08-18T11:58:26.473Z,37
2018-08-18T11:59:36.566Z,37.14
2018-08-18T12:00:46.135Z,37.17
2018-08-18T12:01:56.119Z,37.19
2018-08-18T12:03:06.624Z,37.23
2018-08-18T12:04:16.211Z,37.27
2018-08-18T12:05:26.292Z,37.3
2018-08-18T12:06:35.849Z,37.36
2018-08-18T12:07:45.936Z,37.3
2018-08-18T12:08:55.762Z,37.27
2018-08-18T12:10:05.843Z,37.3
2018-08-18T12:11:15.939Z,37.33
2018-08-18T12:12:26.032Z,37.24
2018-08-18T12:13:36.136Z,37.33
2018-08-18T12:14:45.992Z,37.31
2018-08-18T12:15:55.816Z,37.46
2018-08-18T12:17:05.959Z,37.45
2018-08-18T12:18:15.803Z,37.61
2018-08-18T12:19:25.891Z,37.62
2018-08-18T12:20:36.332Z,37.64
2018-08-18T12:21:46.423Z,37.71
2018-08-18T12:22:56.252Z,37.81
2018-08-18T12:24:06.064Z,37.81
2018-08-18T12:25:16.153Z,37.94
2018-08-18T12:26:26.296Z,37.98
2018-08-18T12:27:36.389Z,38.02
2018-08-18T12:28:46.470Z,38.1
2018-08-18T12:29:56.948Z,38.1
2018-08-18T12:31:07.426Z,38.08
2018-08-18T12:32:17.272Z,38.2
2018-08-18T12:33:27.370Z,38.2
2018-08-18T12:34:37.465Z,38.2
2018-08-18T12:35:47.568Z,38.12
2018-08-18T12:36:58.125Z,38.21
2018-08-18T12:38:08.254Z,38.15
2018-08-18T12:39:18.073Z,38.24
2018-08-18T12:40:28.162Z,38.21
2018-08-18T12:41:38.268Z,38.3
2018-08-18T12:42:48.105Z,38.3
2018-08-18T12:43:57.921Z,38.35
2018-08-18T12:45:08.475Z,38.43
2018-08-18T12:46:18.299Z,38.36
2018-08-18T12:47:28.446Z,38.31
2018-08-18T12:48:38.555Z,38.21
2018-08-18T12:49:48.534Z,38.09
2018-08-18T12:50:58.476Z,37.99
2018-08-18T12:52:08.586Z,37.91
2018-08-18T12:53:18.698Z,37.88
2018-08-18T12:54:28.794Z,37.91
2018-08-18T12:55:38.900Z,37.9
2018-08-18T12:56:48.739Z,37.81
2018-08-18T12:57:58.815Z,37.72
2018-08-18T12:59:08.952Z,37.74
2018-08-18T13:00:19.042Z,37.65
2018-08-18T13:01:28.885Z,37.71
2018-08-18T13:02:39.011Z,37.56
2018-08-18T13:03:49.117Z,37.56
2018-08-18T13:04:59.206Z,37.54
2018-08-18T13:06:09.311Z,37.48
2018-08-18T13:07:19.186Z,37.54
2018-08-18T13:08:29.033Z,37.53
2018-08-18T13:09:38.864Z,37.49
2018-08-18T13:10:48.967Z,37.54
2018-08-18T13:11:58.817Z,37.66
2018-08-18T13:13:08.988Z,37.61
2018-08-18T13:14:19.183Z,37.62
2018-08-18T13:15:29.455Z,37.69
2018-08-18T13:16:39.303Z,37.64
2018-08-18T13:17:49.426Z,37.74
2018-08-18T13:18:59.571Z,37.83
2018-08-18T13:20:09.408Z,37.91
2018-08-18T13:21:19.267Z,37.9
2018-08-18T13:22:29.130Z,37.93
2018-08-18T13:23:39.252Z,37.9
2018-08-18T13:24:49.342Z,37.83
2018-08-18T13:25:59.172Z,37.81
2018-08-18T13:27:09.263Z,37.86
2018-08-18T13:28:19.361Z,37.87
2018-08-18T13:29:29.184Z,37.79
2018-08-18T13:30:39.312Z,37.88
2018-08-18T13:31:49.549Z,37.91
2018-08-18T13:32:59.643Z,38.05
2018-08-18T13:34:09.780Z,37.98
2018-08-18T13:35:19.634Z,37.94
2018-08-18T13:36:29.201Z,37.99
2018-08-18T13:37:39.086Z,37.96
2018-08-18T13:38:49.191Z,37.94
2018-08-18T13:39:59.016Z,37.88
2018-08-18T13:41:09.098Z,37.88
2018-08-18T13:42:19.229Z,37.79
2018-08-18T13:43:29.339Z,37.86
2018-08-18T13:44:39.442Z,37.84
2018-08-18T13:45:49.531Z,37.86
2018-08-18T13:46:59.363Z,37.83
2018-08-18T13:48:09.523Z,37.8
2018-08-18T13:49:19.625Z,37.84
2018-08-18T13:50:29.764Z,37.83
2018-08-18T13:51:39.578Z,37.75
2018-08-18T13:52:50.065Z,37.74
2018-08-18T13:54:00.406Z,37.66
2018-08-18T13:55:10.575Z,37.66
2018-08-18T13:56:20.674Z,37.68
2018-08-18T13:57:30.519Z,37.61
2018-08-18T13:58:40.774Z,37.66
2018-08-18T13:59:51.022Z,37.51
2018-08-18T14:01:01.173Z,37.51
2018-08-18T14:02:11.284Z,37.46
2018-08-18T14:03:21.385Z,37.45
2018-08-18T14:04:31.820Z,37.41
2018-08-18T14:05:41.654Z,37.44
2018-08-18T14:06:51.542Z,37.41
2018-08-18T14:08:01.819Z,37.39
2018-08-18T14:09:12.232Z,37.41
2018-08-18T14:10:22.324Z,37.34
2018-08-18T14:11:32.416Z,37.41
2018-08-18T14:12:42.259Z,37.45
2018-08-18T14:13:52.385Z,37.46
2018-08-18T14:15:02.467Z,37.54
2018-08-18T14:16:12.561Z,37.49
2018-08-18T14:17:22.795Z,37.54
2018-08-18T14:18:33.167Z,37.64
2018-08-18T14:19:43.247Z,37.57
2018-08-18T14:20:53.349Z,37.61
2018-08-18T14:22:03.444Z,37.62
2018-08-18T14:23:13.867Z,37.64
2018-08-18T14:24:23.695Z,37.53
2018-08-18T14:25:33.802Z,37.57
2018-08-18T14:26:43.923Z,37.49
2018-08-18T14:27:53.764Z,37.56
2018-08-18T14:29:03.848Z,37.45
2018-08-18T14:30:13.965Z,37.48
2018-08-18T14:31:23.800Z,37.49
2018-08-18T14:32:33.882Z,37.56
2018-08-18T14:33:43.707Z,37.53
2018-08-18T14:34:53.550Z,37.54
2018-08-18T14:36:03.367Z,37.48
2018-08-18T14:37:13.465Z,37.42
2018-08-18T14:38:23.298Z,37.41
2018-08-18T14:39:33.396Z,37.37
2018-08-18T14:40:43.510Z,37.34
2018-08-18T14:41:53.645Z,37.34
2018-08-18T14:43:03.732Z,37.26
2018-08-18T14:44:13.838Z,37.22
2018-08-18T14:45:23.932Z,37.14
2018-08-18T14:46:34.561Z,37.15
2018-08-18T14:47:44.769Z,37.07
2018-08-18T14:48:54.861Z,37.07
2018-08-18T14:50:04.415Z,37.04
2018-08-18T14:51:14.509Z,37.09
2018-08-18T14:52:24.620Z,37.05
2018-08-18T14:53:34.784Z,37.08
2018-08-18T14:54:44.875Z,37.08
2018-08-18T14:55:54.986Z,36.99
2018-08-18T14:57:05.467Z,36.88
2018-08-18T14:58:15.557Z,36.89
2018-08-18T14:59:25.711Z,36.86
2018-08-18T15:00:35.797Z,36.86
2018-08-18T15:01:45.902Z,36.93
2018-08-18T15:02:55.991Z,36.84
2018-08-18T15:04:06.102Z,36.89
2018-08-18T15:05:15.938Z,36.9
2018-08-18T15:06:26.061Z,36.81
2018-08-18T15:07:36.163Z,36.9
2018-08-18T15:08:46.476Z,36.8
2018-08-18T15:09:56.879Z,36.83
2018-08-18T15:11:07.084Z,36.78
2018-08-18T15:12:17.191Z,36.71
2018-08-18T15:13:27.321Z,36.7
2018-08-18T15:14:37.412Z,36.68
2018-08-18T15:15:48.203Z,36.63
2018-08-18T15:16:57.966Z,36.67
2018-08-18T15:18:08.166Z,36.62
2018-08-18T15:19:18.364Z,36.55
2018-08-18T15:20:28.487Z,36.55
2018-08-18T15:21:38.646Z,36.63
2018-08-18T15:22:48.484Z,36.51
2018-08-18T15:23:58.593Z,36.51
2018-08-18T15:25:08.794Z,36.46
2018-08-18T15:26:18.888Z,36.43
2018-08-18T15:27:28.996Z,36.41
2018-08-18T15:28:39.102Z,36.36
2018-08-18T15:29:49.204Z,36.37
2018-08-18T15:30:58.523Z,36.34
2018-08-18T15:32:08.387Z,36.33
2018-08-18T15:33:18.469Z,36.24
2018-08-18T15:34:28.353Z,36.25
2018-08-18T15:35:38.462Z,36.18
2018-08-18T15:36:48.564Z,36.22